createdAt,value
2018-06-28T00:01:22.353Z,17.70
2018-06-28T00:03:50.781Z,17.70
2018-06-28T00:06:19.436Z,17.60
2018-06-28T00:08:47.845Z,17.60
2018-06-28T00:11:16.264Z,17.60
2018-06-28T00:13:44.822Z,17.50
2018-06-28T00:16:13.201Z,17.50
2018-06-28T00:18:41.561Z,17.40
2018-06-28T00:21:10.240Z,17.40
2018-06-28T00:23:38.661Z,17.30
2018-06-28T00:26:07.037Z,17.30
2018-06-28T00:28:35.598Z,17.30
2018-06-28T00:31:03.965Z,17.30
2018-06-28T00:33:32.609Z,17.20
2018-06-28T00:36:00.974Z,17.20
2018-06-28T00:38:29.365Z,17.20
2018-06-28T00:40:58.037Z,17.20
2018-06-28T00:43:26.464Z,17.20
2018-06-28T00:45:54.872Z,17.10
2018-06-28T00:48:23.513Z,17.10
2018-06-28T00:50:51.889Z,17.10
2018-06-28T00:53:20.273Z,17.10
2018-06-28T00:55:48.897Z,17.10
2018-06-28T00:58:17.269Z,17.10
2018-06-28T01:00:45.629Z,17.00
2018-06-28T01:03:14.889Z,17.00
2018-06-28T01:05:43.574Z,17.00
2018-06-28T01:08:11.957Z,17.00
2018-06-28T01:10:40.333Z,16.90
2018-06-28T01:13:08.930Z,16.90
2018-06-28T01:15:37.324Z,16.80
2018-06-28T01:18:05.810Z,16.80
2018-06-28T01:20:34.460Z,16.70
2018-06-28T01:25:31.084Z,16.70
2018-06-28T01:27:59.565Z,16.70
2018-06-28T01:30:28.095Z,16.70
2018-06-28T01:32:56.481Z,16.60
2018-06-28T01:35:25.232Z,16.60
2018-06-28T01:37:53.733Z,16.60
2018-06-28T01:40:22.202Z,16.60
2018-06-28T01:43:01.927Z,16.50
2018-06-28T01:45:30.314Z,16.50
2018-06-28T01:47:58.713Z,16.40
2018-06-28T01:50:27.145Z,16.40
2018-06-28T01:52:55.598Z,16.40
2018-06-28T01:55:24.212Z,16.30
2018-06-28T01:57:52.633Z,16.30
2018-06-28T02:00:21.024Z,16.30
2018-06-28T02:02:49.445Z,16.20
2018-06-28T02:05:18.089Z,16.20
2018-06-28T02:07:46.556Z,16.20
2018-06-28T02:12:43.158Z,16.10
2018-06-28T02:15:11.488Z,16.10
2018-06-28T02:17:39.912Z,16.10
2018-06-28T02:20:08.292Z,16.00
2018-06-28T02:22:36.688Z,16.00
2018-06-28T02:25:05.125Z,15.90
2018-06-28T02:27:33.467Z,15.90
2018-06-28T02:30:01.883Z,15.90
2018-06-28T02:32:30.316Z,15.90
2018-06-28T02:34:58.721Z,15.80
2018-06-28T02:37:27.081Z,15.80
2018-06-28T02:39:55.631Z,15.70
2018-06-28T02:42:24.180Z,15.70
2018-06-28T02:44:52.601Z,15.70
2018-06-28T02:47:21.013Z,15.60
2018-06-28T02:49:49.665Z,15.60
2018-06-28T02:52:18.203Z,15.60
2018-06-28T02:54:46.568Z,15.50
2018-06-28T02:57:15.489Z,15.50
2018-06-28T02:59:43.937Z,15.50
2018-06-28T03:02:12.315Z,15.40
2018-06-28T03:04:40.749Z,15.40
2018-06-28T03:07:09.226Z,15.40
2018-06-28T03:09:37.603Z,15.40
2018-06-28T03:12:06.040Z,15.40
2018-06-28T03:14:34.739Z,15.30
2018-06-28T03:17:03.144Z,15.30
2018-06-28T03:19:31.592Z,15.30
2018-06-28T03:22:00.169Z,15.30
2018-06-28T03:24:28.629Z,15.20
2018-06-28T03:26:57.037Z,15.20
2018-06-28T03:29:25.452Z,15.20
2018-06-28T03:31:54.397Z,15.20
2018-06-28T03:34:22.748Z,15.20
2018-06-28T03:36:51.392Z,15.20
2018-06-28T03:39:19.764Z,15.20
2018-06-28T03:41:48.218Z,15.20
2018-06-28T03:44:16.846Z,15.30
2018-06-28T03:46:45.509Z,15.40
2018-06-28T03:49:14.854Z,15.60
2018-06-28T03:51:43.465Z,16.00
2018-06-28T03:54:11.854Z,16.50
2018-06-28T03:56:41.207Z,16.90
2018-06-28T03:59:09.794Z,17.30
2018-06-28T04:01:38.253Z,17.60
2018-06-28T04:06:34.846Z,18.30
2018-06-28T04:09:04.454Z,18.60
2018-06-28T04:11:32.876Z,18.90
2018-06-28T04:14:01.273Z,19.10
2018-06-28T04:16:29.884Z,19.40
2018-06-28T04:18:58.348Z,19.70
2018-06-28T04:21:26.740Z,19.70
2018-06-28T04:23:55.329Z,19.80
2018-06-28T04:26:23.797Z,19.90
2018-06-28T04:28:52.160Z,20.10
2018-06-28T04:31:20.577Z,20.30
2018-06-28T04:33:49.052Z,20.60
2018-06-28T04:36:17.432Z,20.60
2018-06-28T04:38:45.800Z,21.10
2018-06-28T04:41:14.372Z,21.50
2018-06-28T04:43:42.773Z,21.80
2018-06-28T04:46:11.133Z,22.00
2018-06-28T04:48:39.692Z,22.40
2018-06-28T04:51:08.109Z,22.90
2018-06-28T04:53:36.477Z,23.60
2018-06-28T04:56:05.418Z,23.50
2018-06-28T04:58:33.839Z,23.60
2018-06-28T05:01:02.272Z,23.90
2018-06-28T05:05:59.392Z,24.60
2018-06-28T05:08:27.772Z,24.60
2018-06-28T05:10:56.390Z,24.80
2018-06-28T05:13:24.853Z,25.10
2018-06-28T05:15:53.236Z,25.40
2018-06-28T05:18:21.705Z,25.50
2018-06-28T05:20:50.266Z,25.50
2018-06-28T05:23:18.758Z,25.50
2018-06-28T05:25:47.273Z,25.30
2018-06-28T05:28:15.689Z,24.90
2018-06-28T05:30:44.333Z,24.90
2018-06-28T05:33:12.728Z,24.50
2018-06-28T05:35:43.771Z,24.50
2018-06-28T05:38:12.218Z,24.40
2018-06-28T05:40:40.641Z,24.60
2018-06-28T05:43:09.237Z,25.20
2018-06-28T05:45:37.773Z,25.80
2018-06-28T05:48:06.172Z,26.40
2018-06-28T05:50:34.741Z,27.00
2018-06-28T05:53:03.121Z,27.50
2018-06-28T05:55:31.909Z,27.80
2018-06-28T05:58:00.469Z,28.00
2018-06-28T06:00:28.885Z,28.10
2018-06-28T06:02:57.317Z,27.80
2018-06-28T06:05:25.953Z,27.70
2018-06-28T06:10:22.515Z,27.90
2018-06-28T06:12:50.981Z,28.00
2018-06-28T06:15:19.359Z,28.20
2018-06-28T06:17:47.777Z,27.90
2018-06-28T06:20:16.232Z,27.40
2018-06-28T06:22:44.835Z,27.10
2018-06-28T06:25:13.227Z,27.30
2018-06-28T06:27:41.799Z,27.70
2018-06-28T06:30:10.409Z,28.30
2018-06-28T06:32:38.842Z,28.10
2018-06-28T06:35:07.357Z,27.90
2018-06-28T06:37:35.756Z,28.00
2018-06-28T06:40:04.409Z,28.10
2018-06-28T06:42:32.990Z,28.40
2018-06-28T06:45:01.442Z,28.30
2018-06-28T06:47:30.070Z,28.60
2018-06-28T06:49:58.728Z,28.90
2018-06-28T06:52:27.144Z,28.90
2018-06-28T06:54:55.532Z,29.20
2018-06-28T06:57:24.065Z,29.10
2018-06-28T06:59:52.438Z,29.00
2018-06-28T07:02:20.847Z,29.10
2018-06-28T07:04:49.412Z,29.30
2018-06-28T07:09:45.886Z,30.00
2018-06-28T07:12:14.337Z,30.10
2018-06-28T07:14:42.767Z,30.10
2018-06-28T07:17:11.146Z,30.00
2018-06-28T07:19:39.593Z,29.60
2018-06-28T07:22:08.016Z,29.60
2018-06-28T07:24:36.448Z,29.50
2018-06-28T07:27:04.992Z,29.70
2018-06-28T07:29:33.426Z,29.40
2018-06-28T07:32:02.046Z,29.30
2018-06-28T07:34:30.452Z,29.50
2018-06-28T07:36:58.864Z,29.50
2018-06-28T07:39:27.729Z,29.40
2018-06-28T07:41:56.128Z,29.00
2018-06-28T07:44:24.655Z,28.80
2018-06-28T07:46:53.201Z,28.60
2018-06-28T07:49:21.532Z,28.20
2018-06-28T07:51:50.097Z,28.00
2018-06-28T07:54:18.459Z,28.10
2018-06-28T07:56:47.135Z,28.30
2018-06-28T07:59:15.522Z,28.50
2018-06-28T08:01:43.866Z,28.60
2018-06-28T08:04:12.568Z,28.50
2018-06-28T08:06:40.988Z,28.60
2018-06-28T08:09:09.392Z,28.40
2018-06-28T08:11:37.872Z,28.00
2018-06-28T08:14:06.288Z,27.90
2018-06-28T08:16:34.702Z,28.20
2018-06-28T08:19:03.308Z,28.60
2018-06-28T08:21:31.703Z,29.00
2018-06-28T08:24:00.148Z,29.10
2018-06-28T08:26:28.561Z,28.90
2018-06-28T08:28:56.980Z,28.80
2018-06-28T08:31:25.372Z,28.70
2018-06-28T08:33:54.060Z,28.40
2018-06-28T08:36:22.425Z,28.30
2018-06-28T08:38:50.829Z,28.30
2018-06-28T08:41:19.461Z,28.20
2018-06-28T08:43:48.492Z,28.10
2018-06-28T08:46:16.972Z,28.10
2018-06-28T08:48:45.866Z,27.70
2018-06-28T08:51:14.256Z,27.90
2018-06-28T08:53:42.664Z,27.90
2018-06-28T08:56:11.672Z,27.80
2018-06-28T08:58:40.256Z,27.50
2018-06-28T09:01:09.173Z,27.60
2018-06-28T09:03:37.744Z,27.40
2018-06-28T09:06:06.158Z,27.50
2018-06-28T09:08:34.544Z,28.00
2018-06-28T09:11:03.200Z,28.20
2018-06-28T09:13:31.694Z,28.50
2018-06-28T09:16:00.117Z,28.60
2018-06-28T09:18:28.681Z,28.70
2018-06-28T09:20:57.056Z,28.50
2018-06-28T09:23:25.509Z,28.20
2018-06-28T09:25:54.049Z,28.30
2018-06-28T09:28:22.484Z,28.30
2018-06-28T09:30:51.026Z,28.10
2018-06-28T09:33:19.650Z,27.80
2018-06-28T09:35:48.521Z,27.90
2018-06-28T09:40:44.990Z,28.00
2018-06-28T09:43:13.397Z,28.00
2018-06-28T09:45:41.811Z,27.70
2018-06-28T09:48:10.221Z,27.70
2018-06-28T09:50:38.707Z,27.90
2018-06-28T09:53:07.193Z,27.90
2018-06-28T09:55:35.663Z,28.20
2018-06-28T09:58:04.300Z,28.30
2018-06-28T10:00:38.067Z,28.40
2018-06-28T10:03:06.605Z,28.50
2018-06-28T10:05:35.556Z,28.20
2018-06-28T10:08:04.204Z,27.60
2018-06-28T10:10:32.888Z,27.10
2018-06-28T10:13:01.340Z,27.20
2018-06-28T10:15:30.075Z,27.30
2018-06-28T10:17:58.737Z,27.50
2018-06-28T10:20:27.365Z,27.60
2018-06-28T10:22:56.098Z,27.50
2018-06-28T10:25:25.412Z,27.60
2018-06-28T10:27:53.887Z,27.40
2018-06-28T10:30:22.577Z,27.00
2018-06-28T10:32:51.297Z,26.70
2018-06-28T10:35:19.698Z,26.50
2018-06-28T10:37:49.301Z,26.50
2018-06-28T10:40:18.617Z,26.50
2018-06-28T10:42:47.000Z,26.70
2018-06-28T10:45:16.180Z,26.70
2018-06-28T10:47:44.601Z,26.70
2018-06-28T10:50:13.137Z,26.90
2018-06-28T10:52:41.728Z,27.20
2018-06-28T10:55:10.150Z,27.50
2018-06-28T10:57:38.517Z,27.90
2018-06-28T11:00:07.145Z,27.80
2018-06-28T11:02:35.577Z,27.90
2018-06-28T11:05:04.094Z,27.90
2018-06-28T11:07:32.704Z,27.90
2018-06-28T11:10:01.040Z,27.60
2018-06-28T11:12:29.449Z,27.00
2018-06-28T11:14:58.108Z,27.00
2018-06-28T11:17:26.485Z,27.20
2018-06-28T11:19:54.950Z,26.90
2018-06-28T11:22:23.589Z,26.90
2018-06-28T11:24:51.981Z,27.00
2018-06-28T11:27:20.538Z,26.90
2018-06-28T11:32:17.138Z,26.70
2018-06-28T11:34:45.634Z,26.80
2018-06-28T11:37:14.253Z,26.70
2018-06-28T11:39:42.600Z,26.80
2018-06-28T11:47:07.546Z,27.10
2018-06-28T11:49:35.996Z,26.00
2018-06-28T11:52:04.689Z,26.90
2018-06-28T11:54:33.076Z,26.70
2018-06-28T11:57:02.654Z,26.70
2018-06-28T12:01:59.209Z,26.60
2018-06-28T12:04:27.772Z,26.60
2018-06-28T12:06:56.220Z,26.40
2018-06-28T12:09:24.627Z,26.10
2018-06-28T12:11:53.461Z,26.20
2018-06-28T12:14:21.896Z,26.30
2018-06-28T12:16:50.855Z,26.10
2018-06-28T12:19:19.298Z,25.90
2018-06-28T12:21:47.660Z,26.00
2018-06-28T12:24:16.033Z,26.20
2018-06-28T12:26:44.625Z,26.30
2018-06-28T12:29:13.466Z,26.40
2018-06-28T12:31:41.877Z,26.50
2018-06-28T12:34:10.995Z,26.50
2018-06-28T12:36:39.609Z,26.50
2018-06-28T12:39:09.574Z,26.50
2018-06-28T12:41:38.061Z,26.70
2018-06-28T12:44:07.136Z,26.80
2018-06-28T12:47:49.631Z,26.90
2018-06-28T12:52:58.599Z,26.80
2018-06-28T12:55:27.916Z,26.50
2018-06-28T12:57:57.536Z,26.50
2018-06-28T13:02:54.107Z,26.60
2018-06-28T13:05:22.510Z,26.60
2018-06-28T13:07:51.053Z,26.10
2018-06-28T13:10:19.503Z,26.80
2018-06-28T13:16:12.018Z,26.90
2018-06-28T13:18:40.485Z,26.80
2018-06-28T13:21:09.565Z,26.80
2018-06-28T13:23:37.972Z,26.80
2018-06-28T13:26:06.848Z,26.80
2018-06-28T13:28:35.596Z,26.90
2018-06-28T13:31:04.565Z,26.80
2018-06-28T13:33:32.995Z,26.90
2018-06-28T13:36:01.412Z,26.90
2018-06-28T13:38:29.816Z,26.80
2018-06-28T13:40:58.438Z,26.80
2018-06-28T13:43:26.832Z,26.80
2018-06-28T13:45:55.484Z,26.70
2018-06-28T13:48:23.934Z,26.50
2018-06-28T13:50:52.830Z,26.40
2018-06-28T13:55:49.682Z,26.30
2018-06-28T13:58:18.202Z,26.40
2018-06-28T14:00:46.638Z,26.30
2018-06-28T14:03:15.200Z,26.30
2018-06-28T14:05:43.553Z,26.30
2018-06-28T14:08:12.421Z,26.40
2018-06-28T14:10:41.230Z,26.40
2018-06-28T14:13:09.992Z,26.30
2018-06-28T14:15:38.511Z,26.20
2018-06-28T14:18:07.014Z,26.20
2018-06-28T14:20:35.689Z,26.20
2018-06-28T14:23:04.213Z,26.20
2018-06-28T14:25:32.669Z,26.20
2018-06-28T14:28:01.234Z,26.30
2018-06-28T14:30:29.649Z,26.30
2018-06-28T14:32:58.020Z,26.20
2018-06-28T14:35:26.413Z,26.10
2018-06-28T14:37:55.060Z,26.20
2018-06-28T14:40:23.476Z,26.40
2018-06-28T14:42:51.944Z,26.40
2018-06-28T14:45:20.561Z,26.30
2018-06-28T14:47:49.109Z,26.30
2018-06-28T14:50:17.476Z,26.30
2018-06-28T14:52:46.126Z,26.30
2018-06-28T14:55:14.840Z,26.30
2018-06-28T14:57:43.244Z,26.30
2018-06-28T15:00:11.805Z,26.40
2018-06-28T15:02:40.204Z,26.50
2018-06-28T15:05:08.724Z,26.40
2018-06-28T15:07:37.116Z,26.30
2018-06-28T15:10:05.666Z,26.30
2018-06-28T15:12:34.096Z,26.40
2018-06-28T15:15:02.621Z,26.50
2018-06-28T15:17:31.265Z,26.60
2018-06-28T15:19:59.684Z,26.60
2018-06-28T15:22:28.044Z,26.60
2018-06-28T15:24:56.640Z,26.60
2018-06-28T15:27:25.120Z,26.60
2018-06-28T15:29:53.472Z,26.70
2018-06-28T15:32:22.220Z,26.70
2018-06-28T15:34:50.593Z,26.80
2018-06-28T15:37:18.992Z,26.80
2018-06-28T15:39:47.592Z,26.80
2018-06-28T15:42:16.004Z,26.80
2018-06-28T15:44:44.386Z,26.90
2018-06-28T15:47:12.832Z,27.00
2018-06-28T15:49:41.465Z,26.90
2018-06-28T15:52:09.892Z,26.80
2018-06-28T15:54:38.365Z,26.80
2018-06-28T15:57:06.813Z,26.70
2018-06-28T15:59:35.168Z,26.70
2018-06-28T16:02:03.825Z,26.50
2018-06-28T16:04:32.268Z,26.60
2018-06-28T16:07:00.632Z,26.60
2018-06-28T16:09:29.300Z,26.70
2018-06-28T16:11:57.701Z,26.60
2018-06-28T16:14:26.115Z,26.50
2018-06-28T16:16:54.688Z,26.40
2018-06-28T16:19:23.204Z,26.40
2018-06-28T16:21:52.313Z,26.50
2018-06-28T16:24:21.110Z,26.50
2018-06-28T16:26:49.557Z,26.50
2018-06-28T16:29:18.069Z,26.30
2018-06-28T16:31:46.844Z,26.20
2018-06-28T16:34:15.277Z,26.10
2018-06-28T16:36:43.681Z,26.10
2018-06-28T16:39:12.282Z,26.10
2018-06-28T16:41:40.960Z,26.10
2018-06-28T16:44:09.503Z,26.00
2018-06-28T16:46:37.969Z,26.10
2018-06-28T16:49:06.364Z,26.10
2018-06-28T16:51:34.757Z,26.10
2018-06-28T16:54:03.124Z,25.90
2018-06-28T16:56:31.707Z,25.80
2018-06-28T16:59:00.115Z,25.80
2018-06-28T17:01:28.603Z,25.70
2018-06-28T17:03:57.297Z,25.70
2018-06-28T17:06:25.868Z,25.70
2018-06-28T17:08:54.290Z,25.70
2018-06-28T17:11:23.077Z,25.70
2018-06-28T17:13:51.732Z,25.70
2018-06-28T17:16:20.340Z,25.70
2018-06-28T17:21:17.714Z,25.70
2018-06-28T17:23:46.388Z,25.60
2018-06-28T17:26:15.234Z,25.50
2018-06-28T17:28:43.835Z,25.40
2018-06-28T17:31:12.361Z,25.40
2018-06-28T17:33:40.852Z,25.30
2018-06-28T17:36:09.242Z,25.30
2018-06-28T17:38:37.640Z,25.20
2018-06-28T17:41:06.385Z,25.20
2018-06-28T17:43:34.896Z,25.20
2018-06-28T17:46:03.331Z,25.10
2018-06-28T17:48:31.739Z,25.10
2018-06-28T17:51:00.292Z,25.10
2018-06-28T17:53:28.689Z,25.10
2018-06-28T17:55:57.049Z,25.10
2018-06-28T17:58:25.495Z,25.00
2018-06-28T18:00:53.911Z,25.00
2018-06-28T18:05:51.660Z,24.90
2018-06-28T18:08:20.029Z,24.80
2018-06-28T18:10:48.906Z,24.80
2018-06-28T18:13:17.317Z,24.70
2018-06-28T18:15:45.688Z,24.60
2018-06-28T18:18:14.893Z,24.60
2018-06-28T18:20:43.295Z,24.60
2018-06-28T18:23:11.721Z,24.60
2018-06-28T18:25:40.319Z,24.60
2018-06-28T18:28:08.868Z,24.50
2018-06-28T18:30:37.277Z,24.50
2018-06-28T18:33:05.752Z,24.40
2018-06-28T18:35:34.509Z,24.30
2018-06-28T18:38:03.090Z,24.30
2018-06-28T18:40:31.412Z,24.30
2018-06-28T18:43:00.086Z,24.30
2018-06-28T18:45:29.235Z,24.30
2018-06-28T18:47:57.715Z,24.20
2018-06-28T18:50:26.339Z,24.10
2018-06-28T18:52:54.883Z,24.10
2018-06-28T18:55:23.260Z,24.00
2018-06-28T18:57:52.680Z,24.00
2018-06-28T19:00:21.736Z,23.90
2018-06-28T19:02:50.372Z,23.90
2018-06-28T19:05:18.979Z,23.90
2018-06-28T19:07:47.368Z,23.90
2018-06-28T19:10:21.161Z,23.80
2018-06-28T19:12:49.588Z,23.80
2018-06-28T19:15:23.392Z,23.70
2018-06-28T19:17:51.848Z,23.60
2018-06-28T19:20:20.375Z,23.60
2018-06-28T19:22:54.397Z,23.50
2018-06-28T19:25:23.416Z,23.50
2018-06-28T19:27:51.899Z,23.40
2018-06-28T19:30:25.814Z,23.40
2018-06-28T19:32:54.229Z,23.30
2018-06-28T19:35:22.728Z,23.30
2018-06-28T19:37:51.928Z,23.20
2018-06-28T19:40:25.649Z,23.20
2018-06-28T19:42:57.210Z,23.10
2018-06-28T19:45:26.719Z,23.00
2018-06-28T19:47:55.265Z,23.00
2018-06-28T19:50:29.337Z,22.90
2018-06-28T19:53:01.145Z,22.90
2018-06-28T19:55:30.283Z,22.80
2018-06-28T19:57:58.797Z,22.80
2018-06-28T20:00:33.586Z,22.70
2018-06-28T20:03:07.708Z,22.60
2018-06-28T20:05:36.225Z,22.50
2018-06-28T20:08:04.862Z,22.60
2018-06-28T20:10:33.329Z,22.50
2018-06-28T20:13:07.073Z,22.50
2018-06-28T20:15:50.448Z,22.40
2018-06-28T20:18:24.244Z,22.30
2018-06-28T20:20:52.936Z,22.30
2018-06-28T20:23:21.816Z,22.20
2018-06-28T20:25:50.756Z,22.10
2018-06-28T20:28:24.524Z,22.00
2018-06-28T20:30:58.308Z,22.00
2018-06-28T20:33:32.161Z,22.00
2018-06-28T20:36:01.105Z,21.90
2018-06-28T20:38:30.172Z,21.80
2018-06-28T20:40:58.535Z,21.80
2018-06-28T20:45:55.321Z,21.70
2018-06-28T20:48:23.687Z,21.60
2018-06-28T20:50:52.348Z,21.50
2018-06-28T20:53:20.760Z,21.50
2018-06-28T20:55:49.225Z,21.50
2018-06-28T20:58:17.664Z,21.40
2018-06-28T21:00:46.089Z,21.40
2018-06-28T21:03:14.529Z,21.40
2018-06-28T21:05:42.892Z,21.30
2018-06-28T21:08:11.400Z,21.30
2018-06-28T21:10:39.962Z,21.30
2018-06-28T21:13:08.323Z,21.20
2018-06-28T21:15:37.212Z,21.20
2018-06-28T21:18:05.659Z,21.10
2018-06-28T21:20:34.084Z,21.10
2018-06-28T21:23:02.772Z,21.00
2018-06-28T21:25:31.150Z,20.90
2018-06-28T21:27:59.539Z,20.80
2018-06-28T21:30:28.152Z,20.70
2018-06-28T21:32:57.252Z,20.70
2018-06-28T21:35:25.632Z,20.60
2018-06-28T21:37:54.344Z,20.60
2018-06-28T21:40:22.761Z,20.60
2018-06-28T21:42:51.193Z,20.60
2018-06-28T21:45:19.801Z,20.50
2018-06-28T21:47:48.163Z,20.40
2018-06-28T21:50:16.634Z,20.30
2018-06-28T21:52:45.304Z,20.30
2018-06-28T21:55:13.772Z,20.20
2018-06-28T21:57:42.173Z,20.20
2018-06-28T22:00:15.700Z,20.10
2018-06-28T22:02:44.145Z,20.10
2018-06-28T22:05:12.521Z,20.10
2018-06-28T22:07:41.073Z,20.00
2018-06-28T22:10:09.472Z,20.00
2018-06-28T22:12:37.853Z,20.00
2018-06-28T22:15:09.968Z,20.00
2018-06-28T22:17:38.345Z,19.90
2018-06-28T22:20:06.792Z,19.90
2018-06-28T22:22:35.526Z,19.80
2018-06-28T22:25:04.017Z,19.80
2018-06-28T22:27:32.397Z,19.70
2018-06-28T22:30:00.800Z,19.70
2018-06-28T22:32:29.192Z,19.60
2018-06-28T22:34:57.787Z,19.50
2018-06-28T22:37:26.180Z,19.50
2018-06-28T22:39:54.580Z,19.50
2018-06-28T22:42:22.945Z,19.40
2018-06-28T22:44:51.304Z,19.40
2018-06-28T22:47:19.815Z,19.40
2018-06-28T22:49:48.240Z,19.30
2018-06-28T22:52:16.592Z,19.30
2018-06-28T22:57:13.318Z,19.20
2018-06-28T22:59:41.692Z,19.20
2018-06-28T23:02:10.201Z,19.20
2018-06-28T23:04:38.628Z,19.20
2018-06-28T23:07:07.034Z,19.20
2018-06-28T23:09:35.672Z,19.20
2018-06-28T23:12:04.041Z,19.20
2018-06-28T23:14:32.533Z,19.10
2018-06-28T23:17:01.080Z,19.10
2018-06-28T23:19:29.466Z,19.10
2018-06-28T23:21:57.845Z,19.00
2018-06-28T23:24:26.507Z,19.00
2018-06-28T23:26:54.898Z,19.00
2018-06-28T23:29:23.290Z,18.90
2018-06-28T23:31:51.709Z,18.90
2018-06-28T23:34:20.160Z,18.90
2018-06-28T23:36:48.745Z,18.80
2018-06-28T23:39:17.387Z,18.80
2018-06-28T23:41:45.772Z,18.80
2018-06-28T23:44:14.176Z,18.70
2018-06-28T23:46:42.761Z,18.70
2018-06-28T23:49:11.181Z,18.60
2018-06-28T23:51:39.540Z,18.60
2018-06-28T23:54:08.000Z,18.60
2018-06-28T23:56:36.381Z,18.60
2018-06-28T23:59:04.737Z,18.60
